Time;durP1;ratioP1;P1;durP2;ratioP2;P2;SDS_P1;SDS_P2;PMS_P1;PMS_P2;Temp;Humidity;BMP_temperature;BMP_pressure;BME280_temperature;BME280_humidity;BME280_pressure;Samples;Min_cycle;Max_cycle;Signal;HPM_P1;HPM_P2
2023/11/24 00:02:19;;;;;;;4.70;1.80;;;;;;;3.85;81.85;100457.72;5089116;28;20082;-70
2023/11/24 00:04:45;;;;;;;7.35;2.15;;;;;;;3.62;83.56;100466.97;5088363;28;20027;-71
2023/11/24 00:07:11;;;;;;;8.75;2.47;;;;;;;3.18;84.84;100460.38;5085913;28;20024;-71
2023/11/24 00:09:36;;;;;;;5.70;2.22;;;;;;;2.95;86.69;100458.41;5088119;28;20044;-70
2023/11/24 00:12:01;;;;;;;4.90;2.03;;;;;;;2.87;87.60;100453.72;5089724;28;20031;-70
2023/11/24 00:14:27;;;;;;;5.63;2.22;;;;;;;2.83;87.26;100447.16;5087387;28;20115;-70
2023/11/24 00:16:53;;;;;;;4.93;1.88;;;;;;;2.97;87.51;100438.53;5087316;28;20379;-70
2023/11/24 00:19:19;;;;;;;7.47;1.85;;;;;;;3.12;87.35;100434.19;5087458;28;20102;-70
2023/11/24 00:21:49;;;;;;;5.65;1.90;;;;;;;3.14;86.94;100422.88;5087065;28;20081;-70
2023/11/24 00:24:16;;;;;;;3.28;1.73;;;;;;;3.18;87.87;100428.63;5086854;28;20123;-70
2023/11/24 00:26:41;;;;;;;6.30;2.42;;;;;;;3.16;88.00;100417.63;5088708;28;20050;-70
2023/11/24 00:29:07;;;;;;;5.78;2.28;;;;;;;3.08;87.84;100419.84;5086841;28;20032;-70
2023/11/24 00:31:32;;;;;;;4.80;2.45;;;;;;;3.05;87.87;100425.19;5088703;28;20036;-70
2023/11/24 00:33:58;;;;;;;8.38;2.15;;;;;;;3.12;88.62;100413.59;5088604;28;20040;-70
2023/11/24 00:36:24;;;;;;;4.43;1.63;;;;;;;3.22;88.62;100409.50;5089113;28;20131;-70
2023/11/24 00:38:50;;;;;;;3.90;2.05;;;;;;;3.25;89.15;100404.16;5087233;28;20047;-70
2023/11/24 00:41:19;;;;;;;8.45;2.47;;;;;;;3.27;88.41;100400.56;5089128;28;20027;-70
2023/11/24 00:43:46;;;;;;;4.93;1.77;;;;;;;3.26;88.14;100400.66;5087844;28;20449;-70
2023/11/24 00:46:12;;;;;;;4.80;1.10;;;;;;;3.38;86.71;100397.25;5085381;28;20479;-71
2023/11/24 00:48:39;;;;;;;2.55;1.13;;;;;;;3.67;84.24;100385.88;5090754;28;20070;-71
2023/11/24 00:51:05;;;;;;;5.47;1.10;;;;;;;3.87;83.26;100383.69;5092526;28;20556;-70
2023/11/24 00:53:34;;;;;;;7.90;1.00;;;;;;;3.99;82.51;100373.38;5092426;28;20036;-70
2023/11/24 00:56:01;;;;;;;3.47;1.33;;;;;;;4.09;82.47;100373.56;5090713;28;20024;-70
2023/11/24 00:58:26;;;;;;;3.08;1.10;;;;;;;4.13;82.08;100372.44;5092919;28;20123;-70
2023/11/24 01:00:53;;;;;;;2.78;1.02;;;;;;;4.16;81.12;100361.91;5092243;28;20115;-70
2023/11/24 01:03:22;;;;;;;4.38;0.75;;;;;;;4.19;82.38;100353.97;5092795;28;20035;-70
2023/11/24 01:05:52;;;;;;;3.70;1.00;;;;;;;4.20;81.43;100344.47;5089598;28;20028;-71
2023/11/24 01:08:17;;;;;;;3.38;1.00;;;;;;;4.19;81.10;100348.81;5090398;28;20027;-70
2023/11/24 01:10:43;;;;;;;5.13;0.98;;;;;;;4.19;81.89;100347.97;5092009;28;20581;-70
2023/11/24 01:13:09;;;;;;;3.65;1.70;;;;;;;4.07;82.84;100349.66;5092915;28;20043;-70
2023/11/24 01:15:34;;;;;;;6.00;1.40;;;;;;;3.87;84.19;100347.59;5091629;28;20518;-70
2023/11/24 01:18:00;;;;;;;6.75;1.80;;;;;;;3.66;84.45;100361.03;5092551;28;20540;-70
2023/11/24 01:20:26;;;;;;;4.07;1.55;;;;;;;3.66;84.08;100347.31;5092777;28;20118;-70
2023/11/24 01:22:51;;;;;;;5.07;1.80;;;;;;;3.80;83.80;100341.22;5091878;28;20111;-70
2023/11/24 01:25:17;;;;;;;3.42;1.15;;;;;;;3.89;83.91;100336.25;5091485;28;20391;-71
2023/11/24 01:27:42;;;;;;;4.57;1.13;;;;;;;4.01;83.29;100334.59;5092019;28;20089;-70
2023/11/24 01:30:09;;;;;;;2.42;1.02;;;;;;;4.08;82.68;100325.53;5090353;28;20032;-71
2023/11/24 01:32:34;;;;;;;3.65;1.15;;;;;;;4.13;82.69;100322.63;5091849;28;20097;-71
2023/11/24 01:35:00;;;;;;;2.13;0.82;;;;;;;4.14;82.71;100325.09;5092635;28;20479;-70
2023/11/24 01:37:26;;;;;;;3.25;1.23;;;;;;;4.12;82.84;100310.66;5089799;28;20660;-71
2023/11/24 01:39:53;;;;;;;3.95;0.90;;;;;;;4.14;83.08;100312.19;5091881;28;20546;-70
2023/11/24 01:42:19;;;;;;;2.53;0.80;;;;;;;4.14;82.95;100303.66;5091248;28;20028;-71
2023/11/24 01:44:45;;;;;;;4.05;1.55;;;;;;;4.11;83.05;100299.53;5091340;28;20438;-70
2023/11/24 01:47:10;;;;;;;5.20;1.23;;;;;;;4.10;83.05;100289.31;5090172;28;20028;-71
2023/11/24 01:49:37;;;;;;;2.65;0.80;;;;;;;4.11;82.87;100278.91;5092073;28;20031;-70
2023/11/24 01:52:04;;;;;;;4.05;1.00;;;;;;;4.15;82.56;100270.00;5092013;28;20427;-71
2023/11/24 01:54:36;;;;;;;1.92;0.75;;;;;;;4.17;82.38;100273.31;5090695;28;20035;-70
2023/11/24 01:57:06;;;;;;;2.45;0.90;;;;;;;4.20;82.45;100262.78;5091401;28;20543;-70
2023/11/24 01:59:32;;;;;;;3.45;1.15;;;;;;;4.22;82.48;100249.78;5090249;28;20111;-70
2023/11/24 02:01:57;;;;;;;4.65;1.13;;;;;;;4.24;82.53;100248.75;5090861;28;20503;-70
2023/11/24 02:04:24;;;;;;;8.93;0.90;;;;;;;4.21;82.11;100246.38;5088995;28;20402;-70
2023/11/24 02:06:50;;;;;;;6.03;1.67;;;;;;;4.18;81.60;100233.69;5091011;28;20028;-70
2023/11/24 02:09:16;;;;;;;3.30;1.42;;;;;;;4.15;81.99;100223.59;5090862;28;20044;-70
2023/11/24 02:11:41;;;;;;;3.47;1.05;;;;;;;4.15;82.01;100222.78;5090965;28;20540;-70
2023/11/24 02:14:07;;;;;;;3.30;0.95;;;;;;;4.12;82.30;100223.81;5091439;28;20028;-70
2023/11/24 02:16:33;;;;;;;3.78;1.00;;;;;;;4.11;82.63;100232.47;5089129;28;20027;-70
2023/11/24 02:18:59;;;;;;;3.15;1.20;;;;;;;4.12;82.69;100230.72;5091572;28;20499;-70
2023/11/24 02:21:25;;;;;;;4.50;0.70;;;;;;;4.11;82.96;100217.00;5092143;28;20028;-70
2023/11/24 02:23:50;;;;;;;5.32;1.05;;;;;;;4.12;83.70;100217.84;5090709;28;20513;-70
2023/11/24 02:26:16;;;;;;;2.58;0.60;;;;;;;4.03;83.84;100209.00;5089732;28;20105;-70
2023/11/24 02:28:42;;;;;;;2.60;1.20;;;;;;;3.99;84.71;100213.53;5090623;28;20032;-70
2023/11/24 02:31:08;;;;;;;4.63;1.40;;;;;;;3.97;84.91;100207.66;5091731;28;20032;-70
2023/11/24 02:33:33;;;;;;;3.45;0.95;;;;;;;3.95;84.49;100185.50;5090307;28;20114;-70
2023/11/24 02:36:05;;;;;;;5.95;0.98;;;;;;;3.98;84.15;100180.13;5091852;28;20028;-70
2023/11/24 02:38:32;;;;;;;3.42;1.77;;;;;;;3.97;84.98;100186.22;5089004;28;20028;-70
2023/11/24 02:40:57;;;;;;;5.47;2.28;;;;;;;3.83;86.26;100194.09;5089724;28;20772;-70
2023/11/24 02:43:23;;;;;;;6.32;2.50;;;;;;;3.71;87.59;100192.41;5089621;28;20131;-70
2023/11/24 02:45:48;;;;;;;8.35;2.15;;;;;;;3.64;88.72;100186.88;5089831;28;20059;-70
2023/11/24 02:48:14;;;;;;;5.68;2.58;;;;;;;3.52;88.61;100190.28;5086842;28;20070;-70
2023/11/24 02:50:39;;;;;;;4.32;1.83;;;;;;;3.40;88.47;100189.38;5088215;28;20472;-70
2023/11/24 02:53:05;;;;;;;4.10;1.95;;;;;;;3.38;89.20;100180.09;5089207;28;20082;-70
2023/11/24 02:55:30;;;;;;;4.22;1.73;;;;;;;3.38;89.44;100174.94;5089788;28;20086;-70
2023/11/24 02:57:56;;;;;;;7.22;1.98;;;;;;;3.38;89.04;100175.78;5082277;28;20099;-70
2023/11/24 03:00:21;;;;;;;3.40;0.85;;;;;;;3.47;87.88;100164.84;5090517;28;20035;-70
2023/11/24 03:02:46;;;;;;;3.88;1.40;;;;;;;3.59;87.48;100163.16;5089989;28;20062;-70
2023/11/24 03:05:13;;;;;;;4.13;1.05;;;;;;;3.53;86.96;100171.31;5088797;28;20023;-70
2023/11/24 03:07:39;;;;;;;3.05;0.68;;;;;;;3.62;86.15;100153.47;5085906;28;20495;-70
2023/11/24 03:10:05;;;;;;;3.17;0.80;;;;;;;3.71;85.93;100151.19;5089459;28;20108;-70
2023/11/24 03:12:31;;;;;;;2.80;0.93;;;;;;;3.71;86.02;100146.03;5087816;28;20388;-70
2023/11/24 03:14:56;;;;;;;4.90;1.00;;;;;;;3.54;86.76;100132.59;5088840;28;20020;-70
2023/11/24 03:17:22;;;;;;;4.30;1.63;;;;;;;3.33;87.40;100134.06;5088637;28;20035;-70
2023/11/24 03:19:48;;;;;;;4.65;1.55;;;;;;;3.20;88.00;100133.28;5089231;28;20038;-70
2023/11/24 03:22:14;;;;;;;6.03;1.65;;;;;;;3.23;88.32;100127.94;5089620;28;20056;-70
2023/11/24 03:24:39;;;;;;;3.30;1.40;;;;;;;3.26;87.76;100122.56;5090394;28;20067;-70
2023/11/24 03:27:05;;;;;;;3.13;1.40;;;;;;;3.31;87.15;100115.31;5088997;28;20062;-70
2023/11/24 03:29:33;;;;;;;2.88;1.10;;;;;;;3.38;86.61;100106.25;5087612;28;20048;-70
2023/11/24 03:31:59;;;;;;;5.60;1.20;;;;;;;3.36;87.20;100113.25;5090968;28;20072;-70
2023/11/24 03:34:24;;;;;;;7.85;1.77;;;;;;;3.26;88.05;100107.94;5089576;28;20067;-70
2023/11/24 03:36:51;;;;;;;3.17;1.40;;;;;;;3.13;88.52;100103.75;5087320;28;20028;-70
2023/11/24 03:39:16;;;;;;;5.35;1.50;;;;;;;3.04;89.97;100099.22;5089543;28;20037;-70
2023/11/24 03:41:42;;;;;;;4.10;1.40;;;;;;;2.90;90.36;100093.25;5088401;28;20040;-70
2023/11/24 03:44:08;;;;;;;3.25;1.50;;;;;;;2.80;91.38;100083.72;5088579;28;20024;-70
2023/11/24 03:46:33;;;;;;;8.40;2.05;;;;;;;2.72;92.24;100070.56;5088721;28;20486;-70
2023/11/24 03:48:58;;;;;;;4.93;1.33;;;;;;;2.65;92.30;100070.97;5089262;28;20491;-70
2023/11/24 03:51:24;;;;;;;2.63;1.20;;;;;;;2.55;93.77;100061.41;5089666;28;20501;-70
2023/11/24 03:53:49;;;;;;;4.32;1.20;;;;;;;2.55;94.01;100061.41;5089053;28;20027;-70
2023/11/24 03:56:15;;;;;;;3.13;1.15;;;;;;;2.52;94.36;100057.28;5088004;28;20099;-70
2023/11/24 03:58:42;;;;;;;2.42;1.15;;;;;;;2.51;95.17;100054.81;5088238;28;20437;-70
2023/11/24 04:01:14;;;;;;;4.40;1.38;;;;;;;2.53;94.83;100052.97;5088240;28;20028;-70
2023/11/24 04:03:43;;;;;;;3.40;1.75;;;;;;;2.48;95.25;100045.56;5089657;28;20078;-70
2023/11/24 04:06:08;;;;;;;4.47;1.48;;;;;;;2.57;94.45;100034.66;5090699;28;20028;-70
2023/11/24 04:08:33;;;;;;;4.95;1.20;;;;;;;2.81;91.76;100037.31;5088633;28;20040;-70
2023/11/24 04:10:59;;;;;;;2.63;0.80;;;;;;;3.04;90.06;100027.16;5089736;28;20032;-70
2023/11/24 04:13:24;;;;;;;3.15;0.95;;;;;;;3.05;89.56;100027.06;5088609;28;20369;-70
2023/11/24 04:15:50;;;;;;;2.30;0.73;;;;;;;3.08;88.99;100023.44;5086698;28;20062;-70
2023/11/24 04:18:15;;;;;;;1.63;0.63;;;;;;;3.11;89.87;100012.94;5089780;28;20043;-70
2023/11/24 04:20:40;;;;;;;4.07;0.95;;;;;;;3.02;89.49;100011.81;5089778;28;20032;-71
2023/11/24 04:23:07;;;;;;;3.53;0.85;;;;;;;3.08;88.62;99998.53;5087374;28;20031;-70
2023/11/24 04:25:32;;;;;;;3.70;0.85;;;;;;;3.13;88.15;99995.63;5088972;28;20090;-71
2023/11/24 04:27:58;;;;;;;3.20;0.73;;;;;;;3.14;88.12;99992.94;5088206;28;20032;-70
2023/11/24 04:30:23;;;;;;;1.70;0.45;;;;;;;3.15;88.16;99996.34;5090213;28;20031;-70
2023/11/24 04:32:49;;;;;;;1.88;0.70;;;;;;;3.11;88.52;100007.78;5088393;28;20043;-70
2023/11/24 04:35:15;;;;;;;3.83;1.20;;;;;;;3.09;88.78;100005.31;5088911;28;20072;-70
2023/11/24 04:37:41;;;;;;;2.50;0.82;;;;;;;3.09;88.76;99996.78;5088524;28;20086;-70
2023/11/24 04:40:07;;;;;;;4.38;0.85;;;;;;;3.08;88.98;99988.22;5084856;28;20064;-70
2023/11/24 04:42:32;;;;;;;2.38;0.70;;;;;;;3.08;89.30;99982.25;5088727;28;20028;-70
2023/11/24 04:44:58;;;;;;;3.65;1.15;;;;;;;3.07;89.56;99980.63;5084901;28;20483;-72
2023/11/24 04:47:23;;;;;;;2.22;1.10;;;;;;;3.08;89.05;99972.78;5088247;28;20036;-71
2023/11/24 04:49:49;;;;;;;4.03;0.93;;;;;;;3.11;88.69;99976.91;5086070;28;20035;-70
2023/11/24 04:52:14;;;;;;;3.95;1.02;;;;;;;3.08;89.55;99972.78;5088525;28;20027;-71
2023/11/24 04:54:40;;;;;;;3.47;1.33;;;;;;;3.04;89.03;99966.22;5087039;28;20031;-71
2023/11/24 04:57:08;;;;;;;2.85;0.80;;;;;;;3.03;88.91;99964.56;5087699;28;20499;-70
2023/11/24 04:59:40;;;;;;;3.35;1.33;;;;;;;3.03;88.82;99967.13;5086113;28;20032;-71
2023/11/24 05:02:06;;;;;;;3.13;0.90;;;;;;;3.05;88.46;99957.56;5087568;28;20032;-71
2023/11/24 05:04:35;;;;;;;3.15;0.85;;;;;;;3.03;88.24;99948.31;5086151;28;20024;-70
2023/11/24 05:07:00;;;;;;;2.33;0.75;;;;;;;2.98;88.43;99952.03;5086720;28;20028;-71
2023/11/24 05:09:26;;;;;;;2.97;1.15;;;;;;;2.96;88.49;99942.75;5088136;28;20028;-71
2023/11/24 05:11:51;;;;;;;4.47;1.08;;;;;;;2.96;88.26;99946.16;5088382;28;20019;-71
2023/11/24 05:14:17;;;;;;;3.10;0.80;;;;;;;2.96;87.78;99928.16;5087586;28;20119;-70
2023/11/24 05:16:42;;;;;;;3.65;0.77;;;;;;;2.98;88.57;99931.44;5089049;28;20040;-70
2023/11/24 05:19:08;;;;;;;2.30;0.65;;;;;;;3.00;88.55;99928.75;5090215;28;20043;-70
2023/11/24 05:21:34;;;;;;;2.42;0.98;;;;;;;2.92;89.14;99925.91;5087490;28;20032;-70
2023/11/24 05:23:59;;;;;;;7.50;1.13;;;;;;;2.83;89.99;99929.97;5088836;28;20075;-70
2023/11/24 05:26:25;;;;;;;4.10;0.80;;;;;;;2.72;91.27;99918.78;5085857;28;20036;-70
2023/11/24 05:28:50;;;;;;;2.30;1.05;;;;;;;2.45;91.77;99927.47;5085992;28;20491;-70
2023/11/24 05:31:15;;;;;;;2.78;1.13;;;;;;;2.24;93.02;99934.94;5088904;28;20035;-70
2023/11/24 05:33:41;;;;;;;2.75;1.30;;;;;;;2.21;93.12;99939.47;5087793;28;20044;-70
2023/11/24 05:36:09;;;;;;;3.13;0.98;;;;;;;2.31;93.47;99933.59;5091782;28;20048;-70
2023/11/24 05:38:37;;;;;;;4.50;1.20;;;;;;;2.38;93.02;99933.16;5091844;28;20096;-70
2023/11/24 05:41:04;;;;;;;5.40;1.17;;;;;;;2.36;92.82;99935.84;5090091;28;20051;-70
2023/11/24 05:43:29;;;;;;;3.15;1.23;;;;;;;2.50;92.51;99934.88;5089871;28;20035;-70
2023/11/24 05:45:54;;;;;;;3.75;0.80;;;;;;;2.56;91.98;99939.59;5089409;28;20035;-70
2023/11/24 05:48:20;;;;;;;4.22;0.93;;;;;;;2.64;91.66;99932.19;5091136;28;20040;-69
2023/11/24 05:50:45;;;;;;;2.58;0.85;;;;;;;2.67;90.78;99929.41;5085781;28;20028;-69
2023/11/24 05:53:11;;;;;;;3.97;1.00;;;;;;;2.66;91.07;99932.91;5089834;28;20119;-69
2023/11/24 05:55:36;;;;;;;2.53;0.70;;;;;;;2.67;90.75;99931.97;5092329;28;20027;-69
2023/11/24 05:58:05;;;;;;;3.28;1.08;;;;;;;2.71;89.69;99930.81;5093084;28;20120;-70
2023/11/24 06:00:31;;;;;;;6.13;1.25;;;;;;;2.81;89.23;99924.09;5091647;28;20052;-70
2023/11/24 06:02:57;;;;;;;3.85;1.10;;;;;;;2.85;89.29;99920.34;5091254;28;20039;-69
2023/11/24 06:05:22;;;;;;;5.13;1.95;;;;;;;2.91;88.78;99925.06;5092589;28;20032;-71
2023/11/24 06:07:48;;;;;;;4.57;1.50;;;;;;;2.97;88.42;99929.78;5092210;28;20031;-69
2023/11/24 06:10:13;;;;;;;4.43;0.70;;;;;;;3.05;87.94;99910.41;5092987;28;20502;-69
2023/11/24 06:12:39;;;;;;;5.32;1.17;;;;;;;3.06;88.03;99907.72;5092159;28;20156;-70
2023/11/24 06:15:05;;;;;;;8.73;1.45;;;;;;;3.07;87.86;99909.38;5092657;28;20027;-69
2023/11/24 06:17:30;;;;;;;4.03;1.02;;;;;;;3.06;87.75;99904.34;5091907;28;20119;-70
2023/11/24 06:19:56;;;;;;;3.78;1.08;;;;;;;3.03;88.01;99902.78;5092659;28;20028;-70
2023/11/24 06:22:22;;;;;;;4.20;1.13;;;;;;;3.00;88.52;99898.69;5092593;28;20054;-70
2023/11/24 06:24:47;;;;;;;3.60;0.80;;;;;;;2.98;87.77;99902.31;5091555;28;20044;-70
2023/11/24 06:27:12;;;;;;;5.82;1.40;;;;;;;2.98;87.70;99910.84;5092479;28;20038;-70
2023/11/24 06:29:38;;;;;;;5.75;1.67;;;;;;;2.94;88.22;99901.69;5091471;28;20028;-70
2023/11/24 06:32:05;;;;;;;4.82;1.30;;;;;;;2.94;89.42;99895.72;5092360;28;20031;-69
2023/11/24 06:34:31;;;;;;;7.28;1.58;;;;;;;2.87;88.92;99895.34;5091878;28;20055;-69
2023/11/24 06:36:56;;;;;;;6.10;1.45;;;;;;;2.86;89.01;99905.75;5092177;28;20422;-70
2023/11/24 06:39:21;;;;;;;3.15;1.00;;;;;;;2.90;88.50;99902.03;5092307;28;20047;-69
2023/11/24 06:41:47;;;;;;;2.67;0.70;;;;;;;2.94;88.63;99885.44;5091659;28;20044;-70
2023/11/24 06:44:12;;;;;;;5.43;1.40;;;;;;;2.98;88.23;99887.69;5091794;28;20024;-69
2023/11/24 06:46:38;;;;;;;7.70;1.27;;;;;;;3.03;88.07;99886.53;5091679;28;20039;-69
2023/11/24 06:49:06;;;;;;;9.70;2.45;;;;;;;3.01;88.37;99884.06;5091801;28;20020;-69
2023/11/24 06:51:32;;;;;;;6.85;1.40;;;;;;;2.98;88.43;99887.69;5091419;28;20059;-70
2023/11/24 06:53:57;;;;;;;3.50;1.10;;;;;;;2.97;87.44;99877.50;5092059;28;20101;-70
2023/11/24 06:56:23;;;;;;;3.78;1.10;;;;;;;2.98;87.95;99874.81;5091518;28;20040;-69
2023/11/24 06:58:50;;;;;;;9.05;1.20;;;;;;;2.99;87.96;99865.34;5091594;28;20031;-70
2023/11/24 07:01:26;;;;;;;7.97;1.17;;;;;;;3.06;88.02;99871.69;5091505;28;20043;-70
2023/11/24 07:03:52;;;;;;;;;;;;;;;3.12;87.78;99873.00;5091733;28;20032;-70
2023/11/24 07:06:17;;;;;;;12.93;1.30;;;;;;;3.11;87.61;99873.94;5091471;28;19923;-70
2023/11/24 07:08:42;;;;;;;5.28;1.38;;;;;;;3.11;87.79;99864.47;5091308;28;20032;-70
2023/11/24 07:11:08;;;;;;;5.50;1.17;;;;;;;3.13;87.56;99862.59;5091716;28;20024;-70
2023/11/24 07:13:33;;;;;;;1.90;0.95;;;;;;;3.20;87.66;99860.41;5091061;28;20399;-70
2023/11/24 07:15:59;;;;;;;3.42;1.23;;;;;;;3.26;87.34;99859.97;5091689;28;20069;-71
2023/11/24 07:18:25;;;;;;;4.43;0.77;;;;;;;3.31;86.96;99858.66;5091537;28;20082;-70
2023/11/24 07:20:51;;;;;;;5.60;1.10;;;;;;;3.39;86.96;99852.94;5090822;28;20042;-70
2023/11/24 07:23:16;;;;;;;9.88;2.70;;;;;;;3.41;87.28;99856.22;5091419;28;20028;-70
2023/11/24 07:25:43;;;;;;;15.95;3.65;;;;;;;3.33;88.91;99846.50;5088839;28;20051;-69
2023/11/24 07:28:09;;;;;;;5.93;2.67;;;;;;;3.33;90.02;99848.25;5090869;28;20081;-70
2023/11/24 07:30:34;;;;;;;14.30;4.38;;;;;;;3.27;89.86;99852.13;5090304;28;20028;-69
2023/11/24 07:33:00;;;;;;;7.22;2.80;;;;;;;3.34;89.46;99840.41;5089492;28;20039;-70
2023/11/24 07:35:25;;;;;;;7.40;2.60;;;;;;;3.48;88.25;99841.97;5090632;28;20414;-70
2023/11/24 07:37:51;;;;;;;6.22;2.25;;;;;;;3.62;87.75;99834.03;5087969;28;20128;-70
2023/11/24 07:40:16;;;;;;;8.07;1.75;;;;;;;3.74;87.17;99821.97;5091247;28;20432;-70
2023/11/24 07:42:43;;;;;;;6.22;1.35;;;;;;;3.79;86.69;99814.69;5090194;28;20547;-70
2023/11/24 07:45:10;;;;;;;4.47;1.40;;;;;;;3.88;86.87;99813.19;5090242;28;20055;-70
2023/11/24 07:47:36;;;;;;;5.53;1.38;;;;;;;3.96;86.19;99810.84;5090320;28;20432;-69
2023/11/24 07:50:03;;;;;;;3.90;1.10;;;;;;;4.01;85.47;99819.03;5089597;28;20040;-70
2023/11/24 07:52:29;;;;;;;2.42;0.90;;;;;;;4.02;85.54;99809.53;5090057;28;20028;-70
2023/11/24 07:54:54;;;;;;;2.90;1.48;;;;;;;3.98;85.89;99807.19;5090205;28;20032;-70
2023/11/24 07:57:20;;;;;;;4.55;1.20;;;;;;;3.94;85.90;99815.28;5089415;28;20122;-70
2023/11/24 07:59:46;;;;;;;5.93;0.82;;;;;;;3.91;85.80;99813.75;5089623;28;20500;-70
2023/11/24 08:02:11;;;;;;;3.75;1.20;;;;;;;3.96;86.05;99809.06;5089839;28;20145;-70
2023/11/24 08:04:37;;;;;;;2.47;0.80;;;;;;;3.99;86.01;99810.59;5089747;28;20074;-69
2023/11/24 08:07:02;;;;;;;2.28;0.90;;;;;;;4.02;86.08;99815.53;5089514;28;20106;-70
2023/11/24 08:09:28;;;;;;;4.40;1.65;;;;;;;4.04;85.75;99816.22;5089747;28;20035;-70
2023/11/24 08:11:53;;;;;;;3.75;1.23;;;;;;;4.07;85.49;99813.41;5089564;28;20382;-71
2023/11/24 08:14:23;;;;;;;4.97;1.05;;;;;;;4.15;85.40;99808.47;5089937;28;20032;-69
2023/11/24 08:16:49;;;;;;;4.25;1.33;;;;;;;4.20;85.48;99798.63;5089681;28;20032;-69
2023/11/24 08:19:17;;;;;;;3.53;1.05;;;;;;;4.29;84.52;99789.31;5090168;28;20122;-69
2023/11/24 08:21:42;;;;;;;3.20;1.02;;;;;;;4.31;84.72;99780.53;5088312;28;20028;-70
2023/11/24 08:24:09;;;;;;;2.35;0.77;;;;;;;4.33;84.52;99772.66;5090123;28;20849;-70
2023/11/24 08:26:34;;;;;;;3.97;1.23;;;;;;;4.32;84.96;99766.69;5089965;28;20032;-69
2023/11/24 08:29:00;;;;;;;5.07;1.55;;;;;;;4.29;85.34;99777.25;5090148;28;20085;-70
2023/11/24 08:31:25;;;;;;;4.25;1.27;;;;;;;4.29;85.35;99777.25;5089440;28;20103;-69
2023/11/24 08:33:51;;;;;;;4.22;1.35;;;;;;;4.34;85.40;99761.41;5089790;28;20379;-70
2023/11/24 08:36:16;;;;;;;3.95;1.55;;;;;;;4.45;85.48;99760.56;5089565;28;20031;-70
2023/11/24 08:38:42;;;;;;;3.45;1.30;;;;;;;4.60;85.39;99767.09;5089333;28;20024;-69
2023/11/24 08:41:16;;;;;;;3.75;1.30;;;;;;;4.76;84.94;99751.97;5090098;28;20435;-69
2023/11/24 08:43:43;;;;;;;3.97;1.25;;;;;;;4.92;84.54;99754.97;5088305;28;20055;-70
2023/11/24 08:46:08;;;;;;;4.80;1.50;;;;;;;5.02;84.14;99746.47;5090264;28;20047;-70
2023/11/24 08:48:39;;;;;;;3.90;1.75;;;;;;;5.13;83.87;99730.91;5089374;28;20031;-69
2023/11/24 08:51:05;;;;;;;5.65;1.90;;;;;;;5.30;83.74;99730.28;5089567;28;20043;-70
2023/11/24 08:53:33;;;;;;;4.90;1.50;;;;;;;5.48;83.85;99715.03;5089056;28;20028;-70
2023/11/24 08:55:58;;;;;;;6.05;2.13;;;;;;;5.63;83.21;99708.56;5090262;28;20117;-70
2023/11/24 08:58:25;;;;;;;7.10;2.25;;;;;;;5.74;82.67;99703.25;5089867;28;20135;-70
2023/11/24 09:00:53;;;;;;;4.95;1.80;;;;;;;5.88;82.47;99696.91;5088113;28;21244;-71
2023/11/24 09:03:18;;;;;;;4.30;2.13;;;;;;;5.89;81.08;99694.22;5089962;28;20078;-70
2023/11/24 09:05:45;;;;;;;4.78;1.83;;;;;;;5.94;80.62;99699.00;5089399;28;20193;-70
2023/11/24 09:08:11;;;;;;;4.63;1.60;;;;;;;6.03;80.78;99694.78;5089848;28;20032;-70
2023/11/24 09:10:36;;;;;;;6.13;1.45;;;;;;;6.15;81.15;99689.34;5092978;28;20035;-70
2023/11/24 09:13:02;;;;;;;4.97;1.95;;;;;;;6.23;80.96;99692.06;5093671;28;20030;-69
2023/11/24 09:15:28;;;;;;;3.90;1.75;;;;;;;6.36;80.88;99680.63;5093211;28;20146;-69
2023/11/24 09:17:53;;;;;;;6.50;2.20;;;;;;;6.53;81.40;99677.38;5094070;28;20042;-69
2023/11/24 09:20:19;;;;;;;11.25;2.78;;;;;;;6.65;80.53;99668.47;5093732;28;20035;-69
2023/11/24 09:22:45;;;;;;;5.88;1.95;;;;;;;6.79;80.62;99680.19;5092609;28;20046;-70
2023/11/24 09:25:11;;;;;;;4.43;2.10;;;;;;;6.77;80.47;99679.50;5092734;28;20071;-70
2023/11/24 09:27:40;;;;;;;6.10;1.50;;;;;;;6.78;80.24;99681.94;5091366;28;20043;-70
2023/11/24 09:30:10;;;;;;;4.78;1.90;;;;;;;6.78;80.35;99669.00;5093313;28;20032;-67
2023/11/24 09:32:37;;;;;;;8.70;1.73;;;;;;;6.80;79.66;99668.88;5092783;28;20028;-67
2023/11/24 09:35:06;;;;;;;5.10;1.65;;;;;;;6.85;78.75;99671.84;5093377;28;20484;-67
2023/11/24 09:37:32;;;;;;;4.57;1.73;;;;;;;6.88;79.95;99667.22;5092725;28;20141;-67
2023/11/24 09:39:58;;;;;;;5.13;1.73;;;;;;;6.92;80.81;99657.41;5092843;28;20032;-67
2023/11/24 09:42:30;;;;;;;5.30;2.00;;;;;;;6.97;78.18;99645.66;5093155;28;20038;-67
2023/11/24 09:45:00;;;;;;;3.33;1.15;;;;;;;6.98;79.81;99631.75;5092378;28;20081;-67
2023/11/24 09:47:26;;;;;;;3.97;1.50;;;;;;;6.96;80.58;99630.25;5093412;28;20521;-67
2023/11/24 09:49:53;;;;;;;10.65;2.17;;;;;;;7.07;80.26;99637.03;5092430;28;20024;-67
2023/11/24 09:52:22;;;;;;;3.75;1.42;;;;;;;7.23;78.21;99621.69;5093133;28;20016;-68
2023/11/24 09:54:48;;;;;;;3.00;1.80;;;;;;;7.30;78.60;99625.34;5092186;28;20457;-67
2023/11/24 09:57:13;;;;;;;4.22;1.65;;;;;;;7.29;79.38;99608.97;5090962;28;20032;-67
2023/11/24 09:59:39;;;;;;;6.68;2.50;;;;;;;7.27;79.93;99599.72;5091622;28;20082;-70
2023/11/24 10:02:12;;;;;;;5.57;2.30;;;;;;;7.25;79.15;99599.84;5092349;28;20044;-67
2023/11/24 10:04:37;;;;;;;5.22;1.63;;;;;;;7.31;78.85;99588.09;5091193;28;20465;-67
2023/11/24 10:07:14;;;;;;;7.47;2.05;;;;;;;7.35;77.83;99591.22;5090892;28;21318;-67
2023/11/24 10:09:40;;;;;;;6.93;1.95;;;;;;;7.38;77.27;99580.56;5090004;28;20059;-67
2023/11/24 10:12:05;;;;;;;6.40;1.77;;;;;;;7.41;79.23;99580.28;5092470;28;20447;-70
2023/11/24 10:14:31;;;;;;;6.38;1.83;;;;;;;7.48;79.29;99565.78;5092230;28;20043;-69
2023/11/24 10:16:56;;;;;;;6.30;1.92;;;;;;;7.48;77.47;99560.59;5093171;28;20032;-69
2023/11/24 10:19:27;;;;;;;7.30;2.30;;;;;;;7.59;77.62;99550.00;5092716;28;20024;-70
2023/11/24 10:21:53;;;;;;;6.70;2.47;;;;;;;7.70;77.30;99551.56;5091956;28;20103;-69
2023/11/24 10:24:21;;;;;;;4.88;2.13;;;;;;;7.82;77.54;99537.41;5092794;28;20044;-69
2023/11/24 10:26:46;;;;;;;5.55;1.67;;;;;;;7.86;77.30;99526.59;5092556;28;20035;-70
2023/11/24 10:29:14;;;;;;;4.05;1.52;;;;;;;7.86;77.40;99528.38;5092843;28;20039;-70
2023/11/24 10:31:39;;;;;;;6.85;2.42;;;;;;;7.92;77.31;99527.78;5090808;28;20036;-70
2023/11/24 10:34:06;;;;;;;6.30;2.47;;;;;;;8.10;76.38;99515.56;5091811;28;20494;-71
2023/11/24 10:36:33;;;;;;;3.83;1.95;;;;;;;8.26;76.80;99504.50;5091650;28;20040;-70
2023/11/24 10:39:08;;;;;;;6.65;2.40;;;;;;;8.37;76.32;99509.47;5095363;28;20031;-70
2023/11/24 10:41:40;;;;;;;7.65;2.70;;;;;;;8.44;75.79;99496.69;5091792;28;20503;-70
2023/11/24 10:44:09;;;;;;;6.78;1.83;;;;;;;8.47;76.48;99491.19;5092126;28;20035;-70
2023/11/24 10:46:37;;;;;;;8.00;2.95;;;;;;;8.44;76.80;99478.50;5091399;28;20020;-67
2023/11/24 10:49:12;;;;;;;7.40;2.30;;;;;;;8.53;76.58;99480.16;5092471;28;20032;-67
2023/11/24 10:51:52;;;;;;;9.02;2.78;;;;;;;8.55;77.45;99486.81;5091974;28;20391;-67
2023/11/24 10:54:25;;;;;;;7.25;2.20;;;;;;;8.58;77.65;99499.50;5091820;28;20040;-67
2023/11/24 10:56:56;;;;;;;5.57;2.38;;;;;;;8.58;76.00;99489.09;5091426;28;20035;-68
2023/11/24 10:59:22;;;;;;;6.05;2.45;;;;;;;8.64;78.25;99479.88;5090966;28;20032;-69
2023/11/24 11:01:49;;;;;;;6.82;2.42;;;;;;;8.77;77.87;99482.06;5090634;28;20040;-67
2023/11/24 11:04:15;;;;;;;7.15;2.60;;;;;;;8.85;78.83;99469.09;5091988;28;20031;-67
2023/11/24 11:06:59;;;;;;;6.90;2.55;;;;;;;8.86;77.67;99466.34;5090247;28;20476;-69
2023/11/24 11:09:42;;;;;;;5.63;2.28;;;;;;;8.83;78.45;99463.25;5091491;28;20394;-69
2023/11/24 11:12:13;;;;;;;9.10;2.50;;;;;;;8.84;78.71;99460.50;5089962;28;20031;-70
2023/11/24 11:14:42;;;;;;;7.75;3.08;;;;;;;8.80;79.49;99459.19;5091005;28;20023;-69
2023/11/24 11:17:15;;;;;;;8.93;2.97;;;;;;;8.71;79.42;99447.13;5090187;28;20063;-69
2023/11/24 11:19:57;;;;;;;9.60;3.08;;;;;;;8.71;79.40;99441.13;5090003;28;20036;-69
2023/11/24 11:22:32;;;;;;;9.77;2.83;;;;;;;8.81;77.83;99434.84;5091589;28;20046;-70
2023/11/24 11:25:14;;;;;;;6.03;2.85;;;;;;;8.74;78.80;99423.44;5090305;28;20043;-68
2023/11/24 11:27:41;;;;;;;10.20;3.67;;;;;;;8.80;77.80;99420.22;5090436;28;20028;-67
2023/11/24 11:30:28;;;;;;;7.63;3.60;;;;;;;8.73;79.49;99408.84;5091453;28;20036;-67
2023/11/24 11:33:14;;;;;;;7.03;3.45;;;;;;;8.91;78.27;99398.34;5088644;28;20050;-67
2023/11/24 11:35:42;;;;;;;;;;;;;;;9.09;76.29;99383.41;5090169;28;20033;-67
2023/11/24 11:38:13;;;;;;;6.20;3.38;;;;;;;9.02;78.91;99381.59;5090773;28;19960;-67